sensor_id;sensor_type;location;lat;lon;timestamp;temperature;humidity
14749;DHT22;7466;53.574;9.976;2023-05-07T00:01:46;8.70;99.90
14749;DHT22;7466;53.574;9.976;2023-05-07T00:04:14;8.70;99.90
14749;DHT22;7466;53.574;9.976;2023-05-07T00:06:41;8.70;99.90
14749;DHT22;7466;53.574;9.976;2023-05-07T00:09:07;8.70;99.90
14749;DHT22;7466;53.574;9.976;2023-05-07T00:11:34;8.70;99.90
14749;DHT22;7466;53.574;9.976;2023-05-07T00:14:01;8.70;99.90
14749;DHT22;7466;53.574;9.976;2023-05-07T00:16:28;8.70;99.90
14749;DHT22;7466;53.574;9.976;2023-05-07T00:18:54;8.70;99.90
14749;DHT22;7466;53.574;9.976;2023-05-07T00:21:23;8.70;99.90
14749;DHT22;7466;53.574;9.976;2023-05-07T00:23:51;8.70;99.90
14749;DHT22;7466;53.574;9.976;2023-05-07T00:26:18;8.70;99.90
14749;DHT22;7466;53.574;9.976;2023-05-07T00:28:46;8.70;99.90
14749;DHT22;7466;53.574;9.976;2023-05-07T00:31:14;8.70;99.90
14749;DHT22;7466;53.574;9.976;2023-05-07T00:33:41;8.70;99.90
14749;DHT22;7466;53.574;9.976;2023-05-07T00:36:08;8.70;99.90
14749;DHT22;7466;53.574;9.976;2023-05-07T00:38:38;8.70;99.90
14749;DHT22;7466;53.574;9.976;2023-05-07T00:41:05;8.80;99.90
14749;DHT22;7466;53.574;9.976;2023-05-07T00:43:32;8.80;99.90
14749;DHT22;7466;53.574;9.976;2023-05-07T00:45:58;8.80;99.90
14749;DHT22;7466;53.574;9.976;2023-05-07T00:48:26;8.80;99.90
14749;DHT22;7466;53.574;9.976;2023-05-07T00:50:55;8.80;99.90
14749;DHT22;7466;53.574;9.976;2023-05-07T00:53:25;8.80;99.90
14749;DHT22;7466;53.574;9.976;2023-05-07T00:55:53;8.80;99.90
14749;DHT22;7466;53.574;9.976;2023-05-07T00:58:20;8.80;99.90
14749;DHT22;7466;53.574;9.976;2023-05-07T01:00:47;8.70;99.90
14749;DHT22;7466;53.574;9.976;2023-05-07T01:03:14;8.80;99.90
14749;DHT22;7466;53.574;9.976;2023-05-07T01:05:41;8.70;99.90
14749;DHT22;7466;53.574;9.976;2023-05-07T01:08:09;8.80;99.90
14749;DHT22;7466;53.574;9.976;2023-05-07T01:10:36;8.80;99.90
14749;DHT22;7466;53.574;9.976;2023-05-07T01:13:05;8.80;99.90
14749;DHT22;7466;53.574;9.976;2023-05-07T01:15:32;8.70;99.90
14749;DHT22;7466;53.574;9.976;2023-05-07T01:17:59;8.80;99.90
14749;DHT22;7466;53.574;9.976;2023-05-07T01:20:25;8.80;99.90
14749;DHT22;7466;53.574;9.976;2023-05-07T01:22:54;8.80;99.90
14749;DHT22;7466;53.574;9.976;2023-05-07T01:25:21;8.80;99.90
14749;DHT22;7466;53.574;9.976;2023-05-07T01:27:48;8.80;99.90
14749;DHT22;7466;53.574;9.976;2023-05-07T01:30:16;8.80;99.90
14749;DHT22;7466;53.574;9.976;2023-05-07T01:32:45;8.80;99.90
14749;DHT22;7466;53.574;9.976;2023-05-07T01:35:19;8.90;99.90
14749;DHT22;7466;53.574;9.976;2023-05-07T01:37:46;8.90;99.90
14749;DHT22;7466;53.574;9.976;2023-05-07T01:40:18;8.80;99.90
14749;DHT22;7466;53.574;9.976;2023-05-07T01:42:46;8.90;99.90
14749;DHT22;7466;53.574;9.976;2023-05-07T01:45:13;8.90;99.90
14749;DHT22;7466;53.574;9.976;2023-05-07T01:47:40;8.80;99.90
14749;DHT22;7466;53.574;9.976;2023-05-07T01:50:08;8.80;99.90
14749;DHT22;7466;53.574;9.976;2023-05-07T01:52:36;8.90;99.90
14749;DHT22;7466;53.574;9.976;2023-05-07T01:55:04;8.90;99.90
14749;DHT22;7466;53.574;9.976;2023-05-07T01:57:33;8.90;99.90
14749;DHT22;7466;53.574;9.976;2023-05-07T01:59:59;8.90;99.90
14749;DHT22;7466;53.574;9.976;2023-05-07T02:02:26;8.90;99.90
14749;DHT22;7466;53.574;9.976;2023-05-07T02:04:53;8.90;99.90
14749;DHT22;7466;53.574;9.976;2023-05-07T02:07:19;8.90;99.90
14749;DHT22;7466;53.574;9.976;2023-05-07T02:09:46;8.90;99.90
14749;DHT22;7466;53.574;9.976;2023-05-07T02:12:13;8.90;99.90
14749;DHT22;7466;53.574;9.976;2023-05-07T02:14:41;8.90;99.90
14749;DHT22;7466;53.574;9.976;2023-05-07T02:17:09;8.90;99.90
14749;DHT22;7466;53.574;9.976;2023-05-07T02:19:35;8.90;99.90
14749;DHT22;7466;53.574;9.976;2023-05-07T02:22:02;8.80;99.90
14749;DHT22;7466;53.574;9.976;2023-05-07T02:24:29;8.90;99.90
14749;DHT22;7466;53.574;9.976;2023-05-07T02:26:55;8.80;99.90
14749;DHT22;7466;53.574;9.976;2023-05-07T02:29:22;8.80;99.90
14749;DHT22;7466;53.574;9.976;2023-05-07T02:31:50;8.80;99.90
14749;DHT22;7466;53.574;9.976;2023-05-07T02:34:18;8.80;99.90
14749;DHT22;7466;53.574;9.976;2023-05-07T02:36:45;8.80;99.90
14749;DHT22;7466;53.574;9.976;2023-05-07T02:39:12;8.80;99.90
14749;DHT22;7466;53.574;9.976;2023-05-07T02:41:39;8.70;99.90
14749;DHT22;7466;53.574;9.976;2023-05-07T02:44:06;8.70;99.90
14749;DHT22;7466;53.574;9.976;2023-05-07T02:46:32;8.70;99.90
14749;DHT22;7466;53.574;9.976;2023-05-07T02:49:01;8.70;99.90
14749;DHT22;7466;53.574;9.976;2023-05-07T02:51:29;8.80;99.90
14749;DHT22;7466;53.574;9.976;2023-05-07T02:53:56;8.70;99.90
14749;DHT22;7466;53.574;9.976;2023-05-07T02:56:25;8.70;99.90
14749;DHT22;7466;53.574;9.976;2023-05-07T02:58:52;8.70;99.90
14749;DHT22;7466;53.574;9.976;2023-05-07T03:01:18;8.70;99.90
14749;DHT22;7466;53.574;9.976;2023-05-07T03:03:46;8.60;99.90
14749;DHT22;7466;53.574;9.976;2023-05-07T03:06:14;8.70;99.90
14749;DHT22;7466;53.574;9.976;2023-05-07T03:08:40;8.70;99.90
14749;DHT22;7466;53.574;9.976;2023-05-07T03:11:07;8.70;99.90
14749;DHT22;7466;53.574;9.976;2023-05-07T03:13:34;8.70;99.90
14749;DHT22;7466;53.574;9.976;2023-05-07T03:16:01;8.70;99.90
14749;DHT22;7466;53.574;9.976;2023-05-07T03:18:27;8.60;99.90
14749;DHT22;7466;53.574;9.976;2023-05-07T03:20:54;8.60;99.90
14749;DHT22;7466;53.574;9.976;2023-05-07T03:23:22;8.60;99.90
14749;DHT22;7466;53.574;9.976;2023-05-07T03:25:49;8.60;99.90
14749;DHT22;7466;53.574;9.976;2023-05-07T03:28:15;8.60;99.90
14749;DHT22;7466;53.574;9.976;2023-05-07T03:30:42;8.60;99.90
14749;DHT22;7466;53.574;9.976;2023-05-07T03:33:09;8.60;99.90
14749;DHT22;7466;53.574;9.976;2023-05-07T03:35:35;8.60;99.90
14749;DHT22;7466;53.574;9.976;2023-05-07T03:38:02;8.60;99.90
14749;DHT22;7466;53.574;9.976;2023-05-07T03:40:30;8.60;99.90
14749;DHT22;7466;53.574;9.976;2023-05-07T03:42:57;8.70;99.90
14749;DHT22;7466;53.574;9.976;2023-05-07T03:45:24;8.70;99.90
14749;DHT22;7466;53.574;9.976;2023-05-07T03:47:51;8.70;99.90
14749;DHT22;7466;53.574;9.976;2023-05-07T03:50:19;8.70;99.90
14749;DHT22;7466;53.574;9.976;2023-05-07T03:52:46;8.70;99.90
14749;DHT22;7466;53.574;9.976;2023-05-07T03:55:12;8.70;99.90
14749;DHT22;7466;53.574;9.976;2023-05-07T03:57:40;8.70;99.90
14749;DHT22;7466;53.574;9.976;2023-05-07T04:00:08;8.70;99.90
14749;DHT22;7466;53.574;9.976;2023-05-07T04:02:35;8.80;99.90
14749;DHT22;7466;53.574;9.976;2023-05-07T04:05:03;8.70;99.90
14749;DHT22;7466;53.574;9.976;2023-05-07T04:07:30;8.80;99.90
14749;DHT22;7466;53.574;9.976;2023-05-07T04:09:57;8.80;99.90
14749;DHT22;7466;53.574;9.976;2023-05-07T04:12:23;8.80;99.90
14749;DHT22;7466;53.574;9.976;2023-05-07T04:14:51;8.80;99.90
14749;DHT22;7466;53.574;9.976;2023-05-07T04:17:18;8.80;99.90
14749;DHT22;7466;53.574;9.976;2023-05-07T04:19:45;8.80;99.90
14749;DHT22;7466;53.574;9.976;2023-05-07T04:22:12;8.80;99.90
14749;DHT22;7466;53.574;9.976;2023-05-07T04:24:41;8.80;99.90
14749;DHT22;7466;53.574;9.976;2023-05-07T04:27:07;8.90;99.90
14749;DHT22;7466;53.574;9.976;2023-05-07T04:29:34;8.90;99.90
14749;DHT22;7466;53.574;9.976;2023-05-07T04:32:02;8.90;99.90
14749;DHT22;7466;53.574;9.976;2023-05-07T04:34:29;8.90;99.90
14749;DHT22;7466;53.574;9.976;2023-05-07T04:36:58;8.90;99.90
14749;DHT22;7466;53.574;9.976;2023-05-07T04:39:25;8.90;99.90
14749;DHT22;7466;53.574;9.976;2023-05-07T04:41:51;8.90;99.90
14749;DHT22;7466;53.574;9.976;2023-05-07T04:44:18;8.90;99.90
14749;DHT22;7466;53.574;9.976;2023-05-07T04:46:46;8.90;99.90
14749;DHT22;7466;53.574;9.976;2023-05-07T04:49:14;8.90;99.90
14749;DHT22;7466;53.574;9.976;2023-05-07T04:51:41;8.90;99.90
14749;DHT22;7466;53.574;9.976;2023-05-07T04:54:10;8.90;99.90
14749;DHT22;7466;53.574;9.976;2023-05-07T04:56:37;8.90;99.90
14749;DHT22;7466;53.574;9.976;2023-05-07T04:59:05;8.90;99.90
14749;DHT22;7466;53.574;9.976;2023-05-07T05:01:32;9.00;99.90
14749;DHT22;7466;53.574;9.976;2023-05-07T05:03:58;8.90;99.90
14749;DHT22;7466;53.574;9.976;2023-05-07T05:06:28;9.00;99.90
14749;DHT22;7466;53.574;9.976;2023-05-07T05:08:55;9.00;99.90
14749;DHT22;7466;53.574;9.976;2023-05-07T05:11:21;9.00;99.90
14749;DHT22;7466;53.574;9.976;2023-05-07T05:13:49;9.00;99.90
14749;DHT22;7466;53.574;9.976;2023-05-07T05:16:15;9.00;99.90
14749;DHT22;7466;53.574;9.976;2023-05-07T05:18:42;9.10;99.90
14749;DHT22;7466;53.574;9.976;2023-05-07T05:21:09;9.10;99.90
14749;DHT22;7466;53.574;9.976;2023-05-07T05:23:37;9.10;99.90
14749;DHT22;7466;53.574;9.976;2023-05-07T05:26:04;9.10;99.90
14749;DHT22;7466;53.574;9.976;2023-05-07T05:28:31;9.10;99.90
14749;DHT22;7466;53.574;9.976;2023-05-07T05:30:57;9.10;99.90
14749;DHT22;7466;53.574;9.976;2023-05-07T05:33:24;9.10;99.90
14749;DHT22;7466;53.574;9.976;2023-05-07T05:35:51;9.10;99.90
14749;DHT22;7466;53.574;9.976;2023-05-07T05:38:18;9.10;99.90
14749;DHT22;7466;53.574;9.976;2023-05-07T05:40:47;9.10;99.90
14749;DHT22;7466;53.574;9.976;2023-05-07T05:43:14;9.10;99.90
14749;DHT22;7466;53.574;9.976;2023-05-07T05:45:41;9.10;99.90
14749;DHT22;7466;53.574;9.976;2023-05-07T05:48:07;9.10;99.90
14749;DHT22;7466;53.574;9.976;2023-05-07T05:50:34;9.10;99.90
14749;DHT22;7466;53.574;9.976;2023-05-07T05:53:02;9.10;99.90
14749;DHT22;7466;53.574;9.976;2023-05-07T05:55:29;9.10;99.90
14749;DHT22;7466;53.574;9.976;2023-05-07T05:57:59;9.10;99.90
14749;DHT22;7466;53.574;9.976;2023-05-07T06:00:25;9.10;99.90
14749;DHT22;7466;53.574;9.976;2023-05-07T06:02:55;9.20;99.90
14749;DHT22;7466;53.574;9.976;2023-05-07T06:05:22;9.30;99.90
14749;DHT22;7466;53.574;9.976;2023-05-07T06:07:50;9.30;99.90
14749;DHT22;7466;53.574;9.976;2023-05-07T06:10:16;9.30;99.90
14749;DHT22;7466;53.574;9.976;2023-05-07T06:12:43;9.40;99.90
14749;DHT22;7466;53.574;9.976;2023-05-07T06:15:12;9.50;99.90
14749;DHT22;7466;53.574;9.976;2023-05-07T06:17:38;9.40;99.90
14749;DHT22;7466;53.574;9.976;2023-05-07T06:20:09;9.40;99.90
14749;DHT22;7466;53.574;9.976;2023-05-07T06:22:36;9.50;99.90
14749;DHT22;7466;53.574;9.976;2023-05-07T06:25:04;9.40;99.90
14749;DHT22;7466;53.574;9.976;2023-05-07T06:27:31;9.50;99.90
14749;DHT22;7466;53.574;9.976;2023-05-07T06:29:57;9.40;99.90
14749;DHT22;7466;53.574;9.976;2023-05-07T06:32:25;9.40;99.90
14749;DHT22;7466;53.574;9.976;2023-05-07T06:34:57;9.40;99.90
14749;DHT22;7466;53.574;9.976;2023-05-07T06:37:25;9.40;99.90
14749;DHT22;7466;53.574;9.976;2023-05-07T06:39:51;9.40;99.90
14749;DHT22;7466;53.574;9.976;2023-05-07T06:42:18;9.50;99.90
14749;DHT22;7466;53.574;9.976;2023-05-07T06:44:45;9.50;99.90
14749;DHT22;7466;53.574;9.976;2023-05-07T06:47:12;9.50;99.90
14749;DHT22;7466;53.574;9.976;2023-05-07T06:49:40;9.50;99.90
14749;DHT22;7466;53.574;9.976;2023-05-07T06:52:06;9.60;99.90
14749;DHT22;7466;53.574;9.976;2023-05-07T06:54:33;9.50;99.90
14749;DHT22;7466;53.574;9.976;2023-05-07T06:57:00;9.50;99.90
14749;DHT22;7466;53.574;9.976;2023-05-07T06:59:27;9.60;99.90
14749;DHT22;7466;53.574;9.976;2023-05-07T07:01:53;9.60;99.90
14749;DHT22;7466;53.574;9.976;2023-05-07T07:04:20;9.60;99.90
14749;DHT22;7466;53.574;9.976;2023-05-07T07:06:49;9.70;99.90
14749;DHT22;7466;53.574;9.976;2023-05-07T07:09:18;9.70;99.90
14749;DHT22;7466;53.574;9.976;2023-05-07T07:11:45;9.90;99.90
14749;DHT22;7466;53.574;9.976;2023-05-07T07:14:13;9.90;99.90
14749;DHT22;7466;53.574;9.976;2023-05-07T07:16:40;9.90;99.90
14749;DHT22;7466;53.574;9.976;2023-05-07T07:19:08;9.90;99.90
14749;DHT22;7466;53.574;9.976;2023-05-07T07:21:36;9.90;99.90
14749;DHT22;7466;53.574;9.976;2023-05-07T07:24:04;9.90;99.90
14749;DHT22;7466;53.574;9.976;2023-05-07T07:26:31;10.00;99.90
14749;DHT22;7466;53.574;9.976;2023-05-07T07:28:58;10.00;99.90
14749;DHT22;7466;53.574;9.976;2023-05-07T07:31:25;10.10;99.90
14749;DHT22;7466;53.574;9.976;2023-05-07T07:33:52;10.10;99.90
14749;DHT22;7466;53.574;9.976;2023-05-07T07:36:19;10.10;99.90
14749;DHT22;7466;53.574;9.976;2023-05-07T07:38:51;10.10;99.90
14749;DHT22;7466;53.574;9.976;2023-05-07T07:41:19;10.10;99.90
14749;DHT22;7466;53.574;9.976;2023-05-07T07:43:46;10.10;99.90
14749;DHT22;7466;53.574;9.976;2023-05-07T07:46:13;10.20;99.90
14749;DHT22;7466;53.574;9.976;2023-05-07T07:48:40;10.30;99.90
14749;DHT22;7466;53.574;9.976;2023-05-07T07:51:06;10.30;99.90
14749;DHT22;7466;53.574;9.976;2023-05-07T07:53:33;10.40;99.90
14749;DHT22;7466;53.574;9.976;2023-05-07T07:56:00;10.30;99.90
14749;DHT22;7466;53.574;9.976;2023-05-07T07:58:28;10.40;99.90
14749;DHT22;7466;53.574;9.976;2023-05-07T08:00:55;10.40;99.90
14749;DHT22;7466;53.574;9.976;2023-05-07T08:03:21;10.40;99.90
14749;DHT22;7466;53.574;9.976;2023-05-07T08:05:48;10.40;99.90
14749;DHT22;7466;53.574;9.976;2023-05-07T08:08:16;10.40;99.90
14749;DHT22;7466;53.574;9.976;2023-05-07T08:10:43;10.40;99.90
14749;DHT22;7466;53.574;9.976;2023-05-07T08:13:10;10.40;99.90
14749;DHT22;7466;53.574;9.976;2023-05-07T08:15:38;10.40;99.90
14749;DHT22;7466;53.574;9.976;2023-05-07T08:18:04;10.50;99.90
14749;DHT22;7466;53.574;9.976;2023-05-07T08:20:31;10.40;99.90
14749;DHT22;7466;53.574;9.976;2023-05-07T08:22:58;10.40;99.90
14749;DHT22;7466;53.574;9.976;2023-05-07T08:25:25;10.40;99.90
14749;DHT22;7466;53.574;9.976;2023-05-07T08:27:52;10.50;99.90
14749;DHT22;7466;53.574;9.976;2023-05-07T08:30:19;10.40;99.90
14749;DHT22;7466;53.574;9.976;2023-05-07T08:32:47;10.40;99.90
14749;DHT22;7466;53.574;9.976;2023-05-07T08:35:13;10.50;99.90
14749;DHT22;7466;53.574;9.976;2023-05-07T08:37:43;10.60;99.90
14749;DHT22;7466;53.574;9.976;2023-05-07T08:40:11;10.60;99.90
14749;DHT22;7466;53.574;9.976;2023-05-07T08:42:38;10.60;99.90
14749;DHT22;7466;53.574;9.976;2023-05-07T08:45:09;10.70;99.90
14749;DHT22;7466;53.574;9.976;2023-05-07T08:47:42;10.80;99.90
14749;DHT22;7466;53.574;9.976;2023-05-07T08:50:11;10.80;99.90
14749;DHT22;7466;53.574;9.976;2023-05-07T08:52:39;10.80;99.90
14749;DHT22;7466;53.574;9.976;2023-05-07T08:55:12;10.70;99.90
14749;DHT22;7466;53.574;9.976;2023-05-07T08:57:39;10.70;99.90
14749;DHT22;7466;53.574;9.976;2023-05-07T09:00:07;10.60;99.90
14749;DHT22;7466;53.574;9.976;2023-05-07T09:02:35;10.70;99.90
14749;DHT22;7466;53.574;9.976;2023-05-07T09:05:05;10.70;99.90
14749;DHT22;7466;53.574;9.976;2023-05-07T09:07:33;10.60;99.90
14749;DHT22;7466;53.574;9.976;2023-05-07T09:10:02;10.70;99.90
14749;DHT22;7466;53.574;9.976;2023-05-07T09:12:29;10.80;99.90
14749;DHT22;7466;53.574;9.976;2023-05-07T09:14:56;10.80;99.90
14749;DHT22;7466;53.574;9.976;2023-05-07T09:17:23;10.80;99.90
14749;DHT22;7466;53.574;9.976;2023-05-07T09:19:50;10.90;99.90
14749;DHT22;7466;53.574;9.976;2023-05-07T09:22:19;11.00;99.90
14749;DHT22;7466;53.574;9.976;2023-05-07T09:24:49;11.10;99.90
14749;DHT22;7466;53.574;9.976;2023-05-07T09:27:16;11.20;99.90
14749;DHT22;7466;53.574;9.976;2023-05-07T09:29:43;11.40;99.90
14749;DHT22;7466;53.574;9.976;2023-05-07T09:32:10;11.40;99.90
14749;DHT22;7466;53.574;9.976;2023-05-07T09:34:37;11.40;99.90
14749;DHT22;7466;53.574;9.976;2023-05-07T09:37:05;11.50;99.90
14749;DHT22;7466;53.574;9.976;2023-05-07T09:39:39;11.40;99.90
14749;DHT22;7466;53.574;9.976;2023-05-07T09:42:09;11.40;99.90
14749;DHT22;7466;53.574;9.976;2023-05-07T09:44:37;11.50;99.90
14749;DHT22;7466;53.574;9.976;2023-05-07T09:47:05;11.40;99.90
14749;DHT22;7466;53.574;9.976;2023-05-07T09:49:34;11.60;99.90
14749;DHT22;7466;53.574;9.976;2023-05-07T09:52:02;11.60;99.90
14749;DHT22;7466;53.574;9.976;2023-05-07T09:54:32;11.50;99.90
14749;DHT22;7466;53.574;9.976;2023-05-07T09:56:59;11.60;99.90
14749;DHT22;7466;53.574;9.976;2023-05-07T09:59:30;11.50;99.90
14749;DHT22;7466;53.574;9.976;2023-05-07T10:01:58;11.50;99.90
14749;DHT22;7466;53.574;9.976;2023-05-07T10:04:25;11.60;99.90
14749;DHT22;7466;53.574;9.976;2023-05-07T10:06:52;11.60;99.90
14749;DHT22;7466;53.574;9.976;2023-05-07T10:09:21;11.60;99.90
14749;DHT22;7466;53.574;9.976;2023-05-07T10:11:49;11.70;99.90
14749;DHT22;7466;53.574;9.976;2023-05-07T10:14:21;11.80;99.90
14749;DHT22;7466;53.574;9.976;2023-05-07T10:16:49;11.90;99.90
14749;DHT22;7466;53.574;9.976;2023-05-07T10:19:16;11.80;99.90
14749;DHT22;7466;53.574;9.976;2023-05-07T10:21:48;11.80;99.90
14749;DHT22;7466;53.574;9.976;2023-05-07T10:24:20;11.90;99.90
14749;DHT22;7466;53.574;9.976;2023-05-07T10:26:50;12.00;99.90
14749;DHT22;7466;53.574;9.976;2023-05-07T10:29:29;12.10;99.90
14749;DHT22;7466;53.574;9.976;2023-05-07T10:32:14;12.10;99.90
14749;DHT22;7466;53.574;9.976;2023-05-07T10:34:48;12.10;99.90
14749;DHT22;7466;53.574;9.976;2023-05-07T10:37:16;12.20;99.90
14749;DHT22;7466;53.574;9.976;2023-05-07T10:39:44;12.00;99.90
14749;DHT22;7466;53.574;9.976;2023-05-07T10:42:12;11.90;99.90
14749;DHT22;7466;53.574;9.976;2023-05-07T10:44:39;11.90;99.90
14749;DHT22;7466;53.574;9.976;2023-05-07T10:47:08;11.80;99.90
14749;DHT22;7466;53.574;9.976;2023-05-07T10:49:37;11.80;99.90
14749;DHT22;7466;53.574;9.976;2023-05-07T10:52:14;11.80;99.90
14749;DHT22;7466;53.574;9.976;2023-05-07T10:54:42;11.70;99.90
14749;DHT22;7466;53.574;9.976;2023-05-07T10:57:34;11.70;99.90
14749;DHT22;7466;53.574;9.976;2023-05-07T11:00:42;11.90;99.90
14749;DHT22;7466;53.574;9.976;2023-05-07T11:03:11;11.80;99.90
14749;DHT22;7466;53.574;9.976;2023-05-07T11:05:38;11.90;99.90
14749;DHT22;7466;53.574;9.976;2023-05-07T11:08:05;11.90;99.90
14749;DHT22;7466;53.574;9.976;2023-05-07T11:10:49;12.00;99.90
14749;DHT22;7466;53.574;9.976;2023-05-07T11:13:16;12.20;99.90
14749;DHT22;7466;53.574;9.976;2023-05-07T11:15:46;12.20;99.90
14749;DHT22;7466;53.574;9.976;2023-05-07T11:18:16;12.30;99.90
14749;DHT22;7466;53.574;9.976;2023-05-07T11:20:56;12.50;99.90
14749;DHT22;7466;53.574;9.976;2023-05-07T11:23:55;12.50;99.90
14749;DHT22;7466;53.574;9.976;2023-05-07T11:26:23;12.60;99.90
14749;DHT22;7466;53.574;9.976;2023-05-07T11:28:51;12.80;99.90
14749;DHT22;7466;53.574;9.976;2023-05-07T11:31:21;12.90;99.90
14749;DHT22;7466;53.574;9.976;2023-05-07T11:33:50;13.20;99.90
14749;DHT22;7466;53.574;9.976;2023-05-07T11:36:18;12.90;99.90
14749;DHT22;7466;53.574;9.976;2023-05-07T11:38:45;13.30;99.90
14749;DHT22;7466;53.574;9.976;2023-05-07T11:41:11;13.50;99.90
14749;DHT22;7466;53.574;9.976;2023-05-07T11:43:40;13.70;99.90
14749;DHT22;7466;53.574;9.976;2023-05-07T11:46:20;14.00;99.90
14749;DHT22;7466;53.574;9.976;2023-05-07T11:48:47;14.30;99.90
14749;DHT22;7466;53.574;9.976;2023-05-07T11:51:19;14.50;99.90
14749;DHT22;7466;53.574;9.976;2023-05-07T11:53:45;14.10;99.90
14749;DHT22;7466;53.574;9.976;2023-05-07T11:56:14;14.10;99.90
14749;DHT22;7466;53.574;9.976;2023-05-07T11:58:44;13.80;99.90
14749;DHT22;7466;53.574;9.976;2023-05-07T12:01:12;14.10;99.90
14749;DHT22;7466;53.574;9.976;2023-05-07T12:03:41;14.00;99.90
14749;DHT22;7466;53.574;9.976;2023-05-07T12:06:09;14.30;99.90
14749;DHT22;7466;53.574;9.976;2023-05-07T12:08:40;14.50;99.90
14749;DHT22;7466;53.574;9.976;2023-05-07T12:11:08;14.40;99.90
14749;DHT22;7466;53.574;9.976;2023-05-07T12:13:38;14.30;99.90
14749;DHT22;7466;53.574;9.976;2023-05-07T12:16:06;14.20;99.90
14749;DHT22;7466;53.574;9.976;2023-05-07T12:18:36;14.40;99.90
14749;DHT22;7466;53.574;9.976;2023-05-07T12:21:04;14.30;99.90
14749;DHT22;7466;53.574;9.976;2023-05-07T12:23:32;14.50;99.90
14749;DHT22;7466;53.574;9.976;2023-05-07T12:26:01;14.40;99.90
14749;DHT22;7466;53.574;9.976;2023-05-07T12:28:29;14.50;99.90
14749;DHT22;7466;53.574;9.976;2023-05-07T12:30:57;14.70;99.90
14749;DHT22;7466;53.574;9.976;2023-05-07T12:33:26;14.70;99.90
14749;DHT22;7466;53.574;9.976;2023-05-07T12:39:06;14.80;99.90
14749;DHT22;7466;53.574;9.976;2023-05-07T12:41:52;14.80;99.90
14749;DHT22;7466;53.574;9.976;2023-05-07T12:44:23;15.10;99.90
14749;DHT22;7466;53.574;9.976;2023-05-07T12:46:55;15.00;99.90
14749;DHT22;7466;53.574;9.976;2023-05-07T12:49:22;15.00;99.90
14749;DHT22;7466;53.574;9.976;2023-05-07T12:51:52;14.90;99.90
14749;DHT22;7466;53.574;9.976;2023-05-07T12:54:29;15.10;99.90
14749;DHT22;7466;53.574;9.976;2023-05-07T12:57:06;15.30;99.90
14749;DHT22;7466;53.574;9.976;2023-05-07T12:59:44;15.40;99.90
14749;DHT22;7466;53.574;9.976;2023-05-07T13:02:32;15.20;99.90
14749;DHT22;7466;53.574;9.976;2023-05-07T13:05:09;15.40;99.90
14749;DHT22;7466;53.574;9.976;2023-05-07T13:10:52;15.30;99.90
14749;DHT22;7466;53.574;9.976;2023-05-07T13:13:23;15.40;99.90
14749;DHT22;7466;53.574;9.976;2023-05-07T13:15:55;15.60;99.90
14749;DHT22;7466;53.574;9.976;2023-05-07T13:18:21;15.70;99.90
14749;DHT22;7466;53.574;9.976;2023-05-07T13:20:48;15.90;99.90
14749;DHT22;7466;53.574;9.976;2023-05-07T13:23:16;15.90;99.90
14749;DHT22;7466;53.574;9.976;2023-05-07T13:25:49;16.00;99.90
14749;DHT22;7466;53.574;9.976;2023-05-07T13:28:16;16.10;99.90
14749;DHT22;7466;53.574;9.976;2023-05-07T13:30:45;16.20;99.90
14749;DHT22;7466;53.574;9.976;2023-05-07T13:33:13;16.30;99.90
14749;DHT22;7466;53.574;9.976;2023-05-07T13:35:42;16.30;99.90
14749;DHT22;7466;53.574;9.976;2023-05-07T13:38:11;16.90;99.90
14749;DHT22;7466;53.574;9.976;2023-05-07T13:40:38;16.80;99.90
14749;DHT22;7466;53.574;9.976;2023-05-07T13:43:06;17.10;99.90
14749;DHT22;7466;53.574;9.976;2023-05-07T13:45:33;17.60;99.90
14749;DHT22;7466;53.574;9.976;2023-05-07T13:48:01;17.50;99.90
14749;DHT22;7466;53.574;9.976;2023-05-07T13:50:28;17.60;99.90
14749;DHT22;7466;53.574;9.976;2023-05-07T13:52:55;17.70;99.90
14749;DHT22;7466;53.574;9.976;2023-05-07T13:55:46;18.30;99.90
14749;DHT22;7466;53.574;9.976;2023-05-07T13:58:15;18.70;99.90
14749;DHT22;7466;53.574;9.976;2023-05-07T14:00:42;18.50;99.90
14749;DHT22;7466;53.574;9.976;2023-05-07T14:03:29;19.40;99.90
14749;DHT22;7466;53.574;9.976;2023-05-07T14:05:57;19.20;99.90
14749;DHT22;7466;53.574;9.976;2023-05-07T14:08:25;19.00;99.90
14749;DHT22;7466;53.574;9.976;2023-05-07T14:10:54;19.60;99.90
14749;DHT22;7466;53.574;9.976;2023-05-07T14:13:39;19.90;99.90
14749;DHT22;7466;53.574;9.976;2023-05-07T14:16:06;19.90;99.90
14749;DHT22;7466;53.574;9.976;2023-05-07T14:18:34;19.10;99.90
14749;DHT22;7466;53.574;9.976;2023-05-07T14:21:02;19.90;99.90
14749;DHT22;7466;53.574;9.976;2023-05-07T14:26:41;19.70;99.90
14749;DHT22;7466;53.574;9.976;2023-05-07T14:29:10;18.80;99.90
14749;DHT22;7466;53.574;9.976;2023-05-07T14:31:36;18.60;99.90
14749;DHT22;7466;53.574;9.976;2023-05-07T14:34:15;18.80;99.90
14749;DHT22;7466;53.574;9.976;2023-05-07T14:36:42;19.50;99.90
14749;DHT22;7466;53.574;9.976;2023-05-07T14:39:16;19.60;99.90
14749;DHT22;7466;53.574;9.976;2023-05-07T14:41:43;19.60;99.90
14749;DHT22;7466;53.574;9.976;2023-05-07T14:44:12;19.70;99.90
14749;DHT22;7466;53.574;9.976;2023-05-07T14:46:41;20.00;99.90
14749;DHT22;7466;53.574;9.976;2023-05-07T14:49:20;20.00;99.90
14749;DHT22;7466;53.574;9.976;2023-05-07T14:51:59;20.50;99.90
14749;DHT22;7466;53.574;9.976;2023-05-07T14:54:30;20.60;99.90
14749;DHT22;7466;53.574;9.976;2023-05-07T14:59:43;20.80;99.90
14749;DHT22;7466;53.574;9.976;2023-05-07T15:02:11;22.60;94.20
14749;DHT22;7466;53.574;9.976;2023-05-07T15:04:39;20.80;94.20
14749;DHT22;7466;53.574;9.976;2023-05-07T15:07:17;20.50;98.20
14749;DHT22;7466;53.574;9.976;2023-05-07T15:09:46;19.20;99.90
14749;DHT22;7466;53.574;9.976;2023-05-07T15:12:13;18.10;99.90
14749;DHT22;7466;53.574;9.976;2023-05-07T15:14:40;18.10;99.90
14749;DHT22;7466;53.574;9.976;2023-05-07T15:17:07;17.90;99.90
14749;DHT22;7466;53.574;9.976;2023-05-07T15:19:38;17.50;99.90
14749;DHT22;7466;53.574;9.976;2023-05-07T15:22:22;17.40;99.90
14749;DHT22;7466;53.574;9.976;2023-05-07T15:24:49;17.40;99.90
14749;DHT22;7466;53.574;9.976;2023-05-07T15:27:33;17.20;99.90
14749;DHT22;7466;53.574;9.976;2023-05-07T15:30:00;17.10;99.90
14749;DHT22;7466;53.574;9.976;2023-05-07T15:32:27;17.10;99.90
14749;DHT22;7466;53.574;9.976;2023-05-07T15:34:58;17.00;99.90
14749;DHT22;7466;53.574;9.976;2023-05-07T15:37:25;16.90;99.90
14749;DHT22;7466;53.574;9.976;2023-05-07T15:40:07;17.00;99.90
14749;DHT22;7466;53.574;9.976;2023-05-07T15:42:34;17.00;99.90
14749;DHT22;7466;53.574;9.976;2023-05-07T15:45:01;16.80;99.90
14749;DHT22;7466;53.574;9.976;2023-05-07T15:47:39;16.60;99.90
14749;DHT22;7466;53.574;9.976;2023-05-07T15:50:13;16.40;99.90
14749;DHT22;7466;53.574;9.976;2023-05-07T15:52:40;16.40;99.90
14749;DHT22;7466;53.574;9.976;2023-05-07T15:55:08;16.20;99.90
14749;DHT22;7466;53.574;9.976;2023-05-07T15:57:37;16.20;99.90
14749;DHT22;7466;53.574;9.976;2023-05-07T16:00:13;16.10;99.90
14749;DHT22;7466;53.574;9.976;2023-05-07T16:02:47;16.00;99.90
14749;DHT22;7466;53.574;9.976;2023-05-07T16:05:22;16.10;99.90
14749;DHT22;7466;53.574;9.976;2023-05-07T16:07:55;16.10;99.90
14749;DHT22;7466;53.574;9.976;2023-05-07T16:10:36;16.10;99.90
14749;DHT22;7466;53.574;9.976;2023-05-07T16:13:15;16.00;99.90
14749;DHT22;7466;53.574;9.976;2023-05-07T16:15:46;16.00;99.90